sensor_id;sensor_type;location;lat;lon;timestamp;temperature;humidity
56234;DHT22;42141;53.240;6.580;2023-04-15T00:00:29;5.80;99.90
56234;DHT22;42141;53.240;6.580;2023-04-15T00:02:55;6.80;99.90
56234;DHT22;42141;53.240;6.580;2023-04-15T00:05:21;7.10;99.90
56234;DHT22;42141;53.240;6.580;2023-04-15T00:07:46;5.70;99.90
56234;DHT22;42141;53.240;6.580;2023-04-15T00:10:13;6.10;99.90
56234;DHT22;42141;53.240;6.580;2023-04-15T00:12:41;5.60;99.90
56234;DHT22;42141;53.240;6.580;2023-04-15T00:15:08;5.60;99.90
56234;DHT22;42141;53.240;6.580;2023-04-15T00:17:34;5.60;99.90
56234;DHT22;42141;53.240;6.580;2023-04-15T00:20:00;5.60;99.90
56234;DHT22;42141;53.240;6.580;2023-04-15T00:22:26;5.60;99.90
56234;DHT22;42141;53.240;6.580;2023-04-15T00:24:53;5.50;99.90
56234;DHT22;42141;53.240;6.580;2023-04-15T00:27:18;5.50;99.90
56234;DHT22;42141;53.240;6.580;2023-04-15T00:29:44;5.80;99.90
56234;DHT22;42141;53.240;6.580;2023-04-15T00:32:10;5.40;99.90
56234;DHT22;42141;53.240;6.580;2023-04-15T00:34:36;5.40;99.90
56234;DHT22;42141;53.240;6.580;2023-04-15T00:37:02;5.40;99.90
56234;DHT22;42141;53.240;6.580;2023-04-15T00:39:27;5.40;99.90
56234;DHT22;42141;53.240;6.580;2023-04-15T00:41:54;5.40;99.90
56234;DHT22;42141;53.240;6.580;2023-04-15T00:44:20;6.40;99.90
56234;DHT22;42141;53.240;6.580;2023-04-15T00:46:46;5.40;99.90
56234;DHT22;42141;53.240;6.580;2023-04-15T00:49:13;6.30;99.90
56234;DHT22;42141;53.240;6.580;2023-04-15T00:51:38;5.50;99.90
56234;DHT22;42141;53.240;6.580;2023-04-15T00:54:07;5.60;99.90
56234;DHT22;42141;53.240;6.580;2023-04-15T00:56:37;5.30;99.90
56234;DHT22;42141;53.240;6.580;2023-04-15T00:59:04;6.40;99.90
56234;DHT22;42141;53.240;6.580;2023-04-15T01:01:32;4.80;99.90
56234;DHT22;42141;53.240;6.580;2023-04-15T01:03:58;5.30;99.90
56234;DHT22;42141;53.240;6.580;2023-04-15T01:06:24;5.30;99.90
56234;DHT22;42141;53.240;6.580;2023-04-15T01:08:52;5.30;99.90
56234;DHT22;42141;53.240;6.580;2023-04-15T01:11:19;5.30;99.90
56234;DHT22;42141;53.240;6.580;2023-04-15T01:13:45;5.30;99.90
56234;DHT22;42141;53.240;6.580;2023-04-15T01:16:12;6.50;99.90
56234;DHT22;42141;53.240;6.580;2023-04-15T01:18:38;5.20;99.90
56234;DHT22;42141;53.240;6.580;2023-04-15T01:21:05;5.20;99.90
56234;DHT22;42141;53.240;6.580;2023-04-15T01:23:32;5.20;99.90
56234;DHT22;42141;53.240;6.580;2023-04-15T01:26:01;5.60;99.90
56234;DHT22;42141;53.240;6.580;2023-04-15T01:28:28;5.20;99.90
56234;DHT22;42141;53.240;6.580;2023-04-15T01:31:13;5.10;99.90
56234;DHT22;42141;53.240;6.580;2023-04-15T01:33:41;5.10;99.90
56234;DHT22;42141;53.240;6.580;2023-04-15T01:36:08;5.10;99.90
56234;DHT22;42141;53.240;6.580;2023-04-15T01:38:35;5.00;99.90
56234;DHT22;42141;53.240;6.580;2023-04-15T01:41:01;5.20;99.90
56234;DHT22;42141;53.240;6.580;2023-04-15T01:43:29;6.10;99.90
56234;DHT22;42141;53.240;6.580;2023-04-15T01:45:55;5.00;99.90
56234;DHT22;42141;53.240;6.580;2023-04-15T01:48:21;4.90;99.90
56234;DHT22;42141;53.240;6.580;2023-04-15T01:50:47;5.50;99.90
56234;DHT22;42141;53.240;6.580;2023-04-15T01:53:13;4.90;99.90
56234;DHT22;42141;53.240;6.580;2023-04-15T01:55:40;4.80;99.90
56234;DHT22;42141;53.240;6.580;2023-04-15T01:58:06;4.80;99.90
56234;DHT22;42141;53.240;6.580;2023-04-15T02:00:32;4.80;99.90
56234;DHT22;42141;53.240;6.580;2023-04-15T02:02:58;4.80;99.90
56234;DHT22;42141;53.240;6.580;2023-04-15T02:05:24;4.80;99.90
56234;DHT22;42141;53.240;6.580;2023-04-15T02:07:50;4.90;99.90
56234;DHT22;42141;53.240;6.580;2023-04-15T02:10:16;4.70;99.90
56234;DHT22;42141;53.240;6.580;2023-04-15T02:12:41;6.10;99.90
56234;DHT22;42141;53.240;6.580;2023-04-15T02:15:08;6.00;99.90
56234;DHT22;42141;53.240;6.580;2023-04-15T02:17:35;4.80;99.90
56234;DHT22;42141;53.240;6.580;2023-04-15T02:20:02;4.80;99.90
56234;DHT22;42141;53.240;6.580;2023-04-15T02:22:30;4.70;99.90
56234;DHT22;42141;53.240;6.580;2023-04-15T02:24:56;4.70;99.90
56234;DHT22;42141;53.240;6.580;2023-04-15T02:27:21;6.00;99.90
56234;DHT22;42141;53.240;6.580;2023-04-15T02:29:47;4.70;99.90
56234;DHT22;42141;53.240;6.580;2023-04-15T02:32:15;4.70;99.90
56234;DHT22;42141;53.240;6.580;2023-04-15T02:34:41;4.70;99.90
56234;DHT22;42141;53.240;6.580;2023-04-15T02:37:08;4.70;99.90
56234;DHT22;42141;53.240;6.580;2023-04-15T02:39:34;4.70;99.90
56234;DHT22;42141;53.240;6.580;2023-04-15T02:42:00;5.50;99.90
56234;DHT22;42141;53.240;6.580;2023-04-15T02:44:28;4.70;99.90
56234;DHT22;42141;53.240;6.580;2023-04-15T02:46:55;4.70;99.90
56234;DHT22;42141;53.240;6.580;2023-04-15T02:49:23;4.70;99.90
56234;DHT22;42141;53.240;6.580;2023-04-15T02:51:48;5.00;99.90
56234;DHT22;42141;53.240;6.580;2023-04-15T02:54:19;4.70;99.90
56234;DHT22;42141;53.240;6.580;2023-04-15T02:56:45;4.70;99.90
56234;DHT22;42141;53.240;6.580;2023-04-15T02:59:11;4.70;99.90
56234;DHT22;42141;53.240;6.580;2023-04-15T03:01:37;5.40;99.90
56234;DHT22;42141;53.240;6.580;2023-04-15T03:04:03;4.70;99.90
56234;DHT22;42141;53.240;6.580;2023-04-15T03:06:28;4.70;99.90
56234;DHT22;42141;53.240;6.580;2023-04-15T03:08:54;4.70;99.90
56234;DHT22;42141;53.240;6.580;2023-04-15T03:11:21;4.70;99.90
56234;DHT22;42141;53.240;6.580;2023-04-15T03:13:47;4.60;99.90
56234;DHT22;42141;53.240;6.580;2023-04-15T03:16:12;5.90;99.90
56234;DHT22;42141;53.240;6.580;2023-04-15T03:18:38;4.60;99.90
56234;DHT22;42141;53.240;6.580;2023-04-15T03:21:04;4.60;99.90
56234;DHT22;42141;53.240;6.580;2023-04-15T03:23:31;4.60;99.90
56234;DHT22;42141;53.240;6.580;2023-04-15T03:25:56;4.60;99.90
56234;DHT22;42141;53.240;6.580;2023-04-15T03:28:23;4.60;99.90
56234;DHT22;42141;53.240;6.580;2023-04-15T03:30:49;4.60;99.90
56234;DHT22;42141;53.240;6.580;2023-04-15T03:33:15;4.60;99.90
56234;DHT22;42141;53.240;6.580;2023-04-15T03:35:40;4.60;99.90
56234;DHT22;42141;53.240;6.580;2023-04-15T03:38:06;5.70;99.90
56234;DHT22;42141;53.240;6.580;2023-04-15T03:40:32;4.60;99.90
56234;DHT22;42141;53.240;6.580;2023-04-15T03:42:58;4.50;99.90
56234;DHT22;42141;53.240;6.580;2023-04-15T03:45:24;4.80;99.90
56234;DHT22;42141;53.240;6.580;2023-04-15T03:47:50;4.70;99.90
56234;DHT22;42141;53.240;6.580;2023-04-15T03:50:16;4.50;99.90
56234;DHT22;42141;53.240;6.580;2023-04-15T03:52:41;5.40;99.90
56234;DHT22;42141;53.240;6.580;2023-04-15T03:55:07;5.60;99.90
56234;DHT22;42141;53.240;6.580;2023-04-15T03:57:33;4.50;99.90
56234;DHT22;42141;53.240;6.580;2023-04-15T04:00:04;4.50;99.90
56234;DHT22;42141;53.240;6.580;2023-04-15T04:02:30;4.40;99.90
56234;DHT22;42141;53.240;6.580;2023-04-15T04:04:56;4.40;99.90
56234;DHT22;42141;53.240;6.580;2023-04-15T04:07:22;5.70;99.90
56234;DHT22;42141;53.240;6.580;2023-04-15T04:09:48;5.70;99.90
56234;DHT22;42141;53.240;6.580;2023-04-15T04:12:14;4.50;99.90
56234;DHT22;42141;53.240;6.580;2023-04-15T04:14:40;4.50;99.90
56234;DHT22;42141;53.240;6.580;2023-04-15T04:17:06;4.50;99.90
56234;DHT22;42141;53.240;6.580;2023-04-15T04:19:32;3.60;99.90
56234;DHT22;42141;53.240;6.580;2023-04-15T04:21:57;4.60;99.90
56234;DHT22;42141;53.240;6.580;2023-04-15T04:24:23;4.60;99.90
56234;DHT22;42141;53.240;6.580;2023-04-15T04:26:49;4.60;99.90
56234;DHT22;42141;53.240;6.580;2023-04-15T04:29:15;4.60;99.90
56234;DHT22;42141;53.240;6.580;2023-04-15T04:31:41;4.60;99.90
56234;DHT22;42141;53.240;6.580;2023-04-15T04:34:07;4.60;99.90
56234;DHT22;42141;53.240;6.580;2023-04-15T04:36:32;4.50;99.90
56234;DHT22;42141;53.240;6.580;2023-04-15T04:38:58;4.50;99.90
56234;DHT22;42141;53.240;6.580;2023-04-15T04:41:24;4.40;99.90
56234;DHT22;42141;53.240;6.580;2023-04-15T04:43:49;4.40;99.90
56234;DHT22;42141;53.240;6.580;2023-04-15T04:46:15;4.40;99.90
56234;DHT22;42141;53.240;6.580;2023-04-15T04:48:44;4.20;99.90
56234;DHT22;42141;53.240;6.580;2023-04-15T04:51:10;4.20;99.90
56234;DHT22;42141;53.240;6.580;2023-04-15T04:53:36;4.10;99.90
56234;DHT22;42141;53.240;6.580;2023-04-15T04:56:02;4.60;99.90
56234;DHT22;42141;53.240;6.580;2023-04-15T04:58:28;4.00;99.90
56234;DHT22;42141;53.240;6.580;2023-04-15T05:00:54;4.00;99.90
56234;DHT22;42141;53.240;6.580;2023-04-15T05:03:21;4.00;99.90
56234;DHT22;42141;53.240;6.580;2023-04-15T05:05:46;3.90;99.90
56234;DHT22;42141;53.240;6.580;2023-04-15T05:08:14;3.90;99.90
56234;DHT22;42141;53.240;6.580;2023-04-15T05:10:40;3.90;99.90
56234;DHT22;42141;53.240;6.580;2023-04-15T05:13:05;3.90;99.90
56234;DHT22;42141;53.240;6.580;2023-04-15T05:15:31;3.90;99.90
56234;DHT22;42141;53.240;6.580;2023-04-15T05:17:57;3.90;99.90
56234;DHT22;42141;53.240;6.580;2023-04-15T05:20:23;3.90;99.90
56234;DHT22;42141;53.240;6.580;2023-04-15T05:22:49;3.90;99.90
56234;DHT22;42141;53.240;6.580;2023-04-15T05:25:14;3.90;99.90
56234;DHT22;42141;53.240;6.580;2023-04-15T05:27:40;4.00;99.90
56234;DHT22;42141;53.240;6.580;2023-04-15T05:30:07;4.00;99.90
56234;DHT22;42141;53.240;6.580;2023-04-15T05:32:33;4.10;99.90
56234;DHT22;42141;53.240;6.580;2023-04-15T05:34:59;5.30;99.90
56234;DHT22;42141;53.240;6.580;2023-04-15T05:37:25;4.20;99.90
56234;DHT22;42141;53.240;6.580;2023-04-15T05:39:51;4.30;99.90
56234;DHT22;42141;53.240;6.580;2023-04-15T05:42:17;4.40;99.90
56234;DHT22;42141;53.240;6.580;2023-04-15T05:44:42;4.50;99.90
56234;DHT22;42141;53.240;6.580;2023-04-15T05:47:08;4.70;99.90
56234;DHT22;42141;53.240;6.580;2023-04-15T05:49:35;4.70;99.90
56234;DHT22;42141;53.240;6.580;2023-04-15T05:52:01;5.20;99.90
56234;DHT22;42141;53.240;6.580;2023-04-15T05:54:27;5.10;99.90
56234;DHT22;42141;53.240;6.580;2023-04-15T05:56:53;6.60;99.90
56234;DHT22;42141;53.240;6.580;2023-04-15T05:59:18;5.20;99.90
56234;DHT22;42141;53.240;6.580;2023-04-15T06:01:44;6.80;99.90
56234;DHT22;42141;53.240;6.580;2023-04-15T06:04:10;5.40;99.90
56234;DHT22;42141;53.240;6.580;2023-04-15T06:06:36;6.80;99.90
56234;DHT22;42141;53.240;6.580;2023-04-15T06:09:03;5.70;99.90
56234;DHT22;42141;53.240;6.580;2023-04-15T06:11:29;6.50;99.90
56234;DHT22;42141;53.240;6.580;2023-04-15T06:13:58;5.90;99.90
56234;DHT22;42141;53.240;6.580;2023-04-15T06:16:26;7.30;99.90
56234;DHT22;42141;53.240;6.580;2023-04-15T06:18:52;6.10;99.90
56234;DHT22;42141;53.240;6.580;2023-04-15T06:21:18;7.70;99.90
56234;DHT22;42141;53.240;6.580;2023-04-15T06:23:43;6.30;99.90
56234;DHT22;42141;53.240;6.580;2023-04-15T06:26:09;6.40;99.90
56234;DHT22;42141;53.240;6.580;2023-04-15T06:28:35;6.50;99.90
56234;DHT22;42141;53.240;6.580;2023-04-15T06:31:01;7.00;99.90
56234;DHT22;42141;53.240;6.580;2023-04-15T06:33:27;8.20;99.90
56234;DHT22;42141;53.240;6.580;2023-04-15T06:35:52;6.90;99.90
56234;DHT22;42141;53.240;6.580;2023-04-15T06:38:18;7.90;99.90
56234;DHT22;42141;53.240;6.580;2023-04-15T06:40:44;7.40;99.90
56234;DHT22;42141;53.240;6.580;2023-04-15T06:43:10;8.30;99.90
56234;DHT22;42141;53.240;6.580;2023-04-15T06:45:36;7.50;99.90
56234;DHT22;42141;53.240;6.580;2023-04-15T06:48:01;7.60;99.90
56234;DHT22;42141;53.240;6.580;2023-04-15T06:50:27;8.40;99.90
56234;DHT22;42141;53.240;6.580;2023-04-15T06:52:54;7.90;99.90
56234;DHT22;42141;53.240;6.580;2023-04-15T06:55:20;8.00;99.90
56234;DHT22;42141;53.240;6.580;2023-04-15T06:57:46;9.10;99.90
56234;DHT22;42141;53.240;6.580;2023-04-15T07:00:12;8.20;99.90
56234;DHT22;42141;53.240;6.580;2023-04-15T07:02:38;8.30;99.90
56234;DHT22;42141;53.240;6.580;2023-04-15T07:05:05;8.40;99.90
56234;DHT22;42141;53.240;6.580;2023-04-15T07:07:31;8.50;99.90
56234;DHT22;42141;53.240;6.580;2023-04-15T07:09:57;8.50;99.90
56234;DHT22;42141;53.240;6.580;2023-04-15T07:12:23;8.60;99.90
56234;DHT22;42141;53.240;6.580;2023-04-15T07:14:49;8.60;99.90
56234;DHT22;42141;53.240;6.580;2023-04-15T07:17:14;8.70;99.90
56234;DHT22;42141;53.240;6.580;2023-04-15T07:19:40;9.50;99.90
56234;DHT22;42141;53.240;6.580;2023-04-15T07:22:06;8.80;99.90
56234;DHT22;42141;53.240;6.580;2023-04-15T07:24:32;9.00;99.90
56234;DHT22;42141;53.240;6.580;2023-04-15T07:26:58;8.90;99.90
56234;DHT22;42141;53.240;6.580;2023-04-15T07:29:24;9.20;99.90
56234;DHT22;42141;53.240;6.580;2023-04-15T07:31:51;8.90;99.90
56234;DHT22;42141;53.240;6.580;2023-04-15T07:34:18;8.90;99.90
56234;DHT22;42141;53.240;6.580;2023-04-15T07:36:45;8.90;99.90
56234;DHT22;42141;53.240;6.580;2023-04-15T07:39:14;9.10;99.90
56234;DHT22;42141;53.240;6.580;2023-04-15T07:41:41;9.00;99.90
56234;DHT22;42141;53.240;6.580;2023-04-15T07:44:06;9.00;99.90
56234;DHT22;42141;53.240;6.580;2023-04-15T07:46:32;9.40;99.90
56234;DHT22;42141;53.240;6.580;2023-04-15T07:48:58;9.00;99.90
56234;DHT22;42141;53.240;6.580;2023-04-15T07:51:24;9.20;99.90
56234;DHT22;42141;53.240;6.580;2023-04-15T07:53:50;9.10;99.90
56234;DHT22;42141;53.240;6.580;2023-04-15T07:56:16;9.20;99.90
56234;DHT22;42141;53.240;6.580;2023-04-15T07:58:42;9.40;99.90
56234;DHT22;42141;53.240;6.580;2023-04-15T08:01:08;9.20;99.90
56234;DHT22;42141;53.240;6.580;2023-04-15T08:03:33;9.20;99.90
56234;DHT22;42141;53.240;6.580;2023-04-15T08:05:59;9.20;99.90
56234;DHT22;42141;53.240;6.580;2023-04-15T08:08:25;9.20;99.90
56234;DHT22;42141;53.240;6.580;2023-04-15T08:10:51;9.10;99.90
56234;DHT22;42141;53.240;6.580;2023-04-15T08:13:17;9.10;99.90
56234;DHT22;42141;53.240;6.580;2023-04-15T08:15:43;9.00;99.90
56234;DHT22;42141;53.240;6.580;2023-04-15T08:18:09;9.00;99.90
56234;DHT22;42141;53.240;6.580;2023-04-15T08:20:35;8.90;99.90
56234;DHT22;42141;53.240;6.580;2023-04-15T08:23:02;8.90;99.90
56234;DHT22;42141;53.240;6.580;2023-04-15T08:25:29;8.90;99.90
56234;DHT22;42141;53.240;6.580;2023-04-15T08:27:55;8.80;99.90
56234;DHT22;42141;53.240;6.580;2023-04-15T08:30:22;8.90;99.90
56234;DHT22;42141;53.240;6.580;2023-04-15T08:32:49;8.90;99.90
56234;DHT22;42141;53.240;6.580;2023-04-15T08:35:14;8.90;99.90
56234;DHT22;42141;53.240;6.580;2023-04-15T08:37:40;8.80;99.90
56234;DHT22;42141;53.240;6.580;2023-04-15T08:40:06;8.80;99.90
56234;DHT22;42141;53.240;6.580;2023-04-15T08:42:41;9.90;99.90
56234;DHT22;42141;53.240;6.580;2023-04-15T08:45:08;9.00;99.90
56234;DHT22;42141;53.240;6.580;2023-04-15T08:47:36;8.80;99.90
56234;DHT22;42141;53.240;6.580;2023-04-15T08:50:08;8.90;99.90
56234;DHT22;42141;53.240;6.580;2023-04-15T08:52:35;9.00;99.90
56234;DHT22;42141;53.240;6.580;2023-04-15T08:55:01;9.00;99.90
56234;DHT22;42141;53.240;6.580;2023-04-15T08:57:28;9.10;99.90
56234;DHT22;42141;53.240;6.580;2023-04-15T08:59:57;9.10;99.90
56234;DHT22;42141;53.240;6.580;2023-04-15T09:02:24;9.10;99.90
56234;DHT22;42141;53.240;6.580;2023-04-15T09:04:53;9.50;99.90
56234;DHT22;42141;53.240;6.580;2023-04-15T09:07:18;9.50;99.90
56234;DHT22;42141;53.240;6.580;2023-04-15T09:09:44;9.10;99.90
56234;DHT22;42141;53.240;6.580;2023-04-15T09:12:11;9.10;99.90
56234;DHT22;42141;53.240;6.580;2023-04-15T09:14:39;9.10;99.90
56234;DHT22;42141;53.240;6.580;2023-04-15T09:17:09;9.10;99.90
56234;DHT22;42141;53.240;6.580;2023-04-15T09:19:35;9.20;99.90
56234;DHT22;42141;53.240;6.580;2023-04-15T09:22:01;9.20;99.90
56234;DHT22;42141;53.240;6.580;2023-04-15T09:24:36;9.20;99.90
56234;DHT22;42141;53.240;6.580;2023-04-15T09:27:02;9.40;99.90
56234;DHT22;42141;53.240;6.580;2023-04-15T09:29:28;9.50;99.90
56234;DHT22;42141;53.240;6.580;2023-04-15T09:31:54;9.50;99.90
56234;DHT22;42141;53.240;6.580;2023-04-15T09:34:20;9.60;99.90
56234;DHT22;42141;53.240;6.580;2023-04-15T09:36:52;9.60;99.90
56234;DHT22;42141;53.240;6.580;2023-04-15T09:39:18;9.60;99.90
56234;DHT22;42141;53.240;6.580;2023-04-15T09:41:45;9.70;99.90
56234;DHT22;42141;53.240;6.580;2023-04-15T09:44:25;9.70;99.90
56234;DHT22;42141;53.240;6.580;2023-04-15T09:46:50;9.70;99.90
56234;DHT22;42141;53.240;6.580;2023-04-15T09:49:16;9.70;99.90
56234;DHT22;42141;53.240;6.580;2023-04-15T09:51:42;9.60;99.90
56234;DHT22;42141;53.240;6.580;2023-04-15T09:54:09;9.60;99.90
56234;DHT22;42141;53.240;6.580;2023-04-15T09:56:35;9.60;99.90
56234;DHT22;42141;53.240;6.580;2023-04-15T09:59:04;9.60;99.90
56234;DHT22;42141;53.240;6.580;2023-04-15T10:01:30;9.60;99.90
56234;DHT22;42141;53.240;6.580;2023-04-15T10:03:57;10.70;99.90
56234;DHT22;42141;53.240;6.580;2023-04-15T10:06:26;9.70;99.90
56234;DHT22;42141;53.240;6.580;2023-04-15T10:08:53;10.10;99.90
56234;DHT22;42141;53.240;6.580;2023-04-15T10:11:20;9.80;99.90
56234;DHT22;42141;53.240;6.580;2023-04-15T10:13:49;9.70;99.90
56234;DHT22;42141;53.240;6.580;2023-04-15T10:16:16;9.70;99.90
56234;DHT22;42141;53.240;6.580;2023-04-15T10:18:50;9.70;99.90
56234;DHT22;42141;53.240;6.580;2023-04-15T10:21:20;9.70;99.90
56234;DHT22;42141;53.240;6.580;2023-04-15T10:23:48;9.70;99.90
56234;DHT22;42141;53.240;6.580;2023-04-15T10:26:14;9.60;99.90
56234;DHT22;42141;53.240;6.580;2023-04-15T10:28:40;9.60;99.90
56234;DHT22;42141;53.240;6.580;2023-04-15T10:31:07;9.50;99.90
56234;DHT22;42141;53.240;6.580;2023-04-15T10:33:34;9.50;99.90
56234;DHT22;42141;53.240;6.580;2023-04-15T10:36:01;9.80;99.90
56234;DHT22;42141;53.240;6.580;2023-04-15T10:38:33;9.50;99.90
56234;DHT22;42141;53.240;6.580;2023-04-15T10:46:35;9.50;99.90
56234;DHT22;42141;53.240;6.580;2023-04-15T10:49:13;9.50;99.90
56234;DHT22;42141;53.240;6.580;2023-04-15T10:51:41;9.50;99.90
56234;DHT22;42141;53.240;6.580;2023-04-15T10:54:15;9.50;99.90
56234;DHT22;42141;53.240;6.580;2023-04-15T10:56:43;9.50;99.90
56234;DHT22;42141;53.240;6.580;2023-04-15T10:59:09;9.80;99.90
56234;DHT22;42141;53.240;6.580;2023-04-15T11:02:06;9.60;99.90
56234;DHT22;42141;53.240;6.580;2023-04-15T11:07:54;9.50;99.90
56234;DHT22;42141;53.240;6.580;2023-04-15T11:13:14;9.50;99.90
56234;DHT22;42141;53.240;6.580;2023-04-15T11:15:45;9.60;99.90
56234;DHT22;42141;53.240;6.580;2023-04-15T11:18:21;9.60;99.90
56234;DHT22;42141;53.240;6.580;2023-04-15T11:20:49;9.60;99.90
56234;DHT22;42141;53.240;6.580;2023-04-15T11:23:26;9.70;99.90
56234;DHT22;42141;53.240;6.580;2023-04-15T11:25:54;9.70;99.90
56234;DHT22;42141;53.240;6.580;2023-04-15T11:28:25;8.80;99.90
56234;DHT22;42141;53.240;6.580;2023-04-15T11:30:51;9.80;99.90
56234;DHT22;42141;53.240;6.580;2023-04-15T11:33:17;10.20;99.90
56234;DHT22;42141;53.240;6.580;2023-04-15T11:35:42;9.80;99.90
56234;DHT22;42141;53.240;6.580;2023-04-15T11:38:11;9.80;99.90
56234;DHT22;42141;53.240;6.580;2023-04-15T11:40:37;9.80;99.90
56234;DHT22;42141;53.240;6.580;2023-04-15T11:43:22;9.80;99.90
56234;DHT22;42141;53.240;6.580;2023-04-15T11:45:59;9.80;99.90
56234;DHT22;42141;53.240;6.580;2023-04-15T11:48:30;9.90;99.90
56234;DHT22;42141;53.240;6.580;2023-04-15T11:51:00;10.00;99.90
56234;DHT22;42141;53.240;6.580;2023-04-15T11:53:47;9.90;99.90
56234;DHT22;42141;53.240;6.580;2023-04-15T11:56:20;9.80;99.90
56234;DHT22;42141;53.240;6.580;2023-04-15T11:58:47;9.70;99.90
56234;DHT22;42141;53.240;6.580;2023-04-15T12:01:15;9.70;99.90
56234;DHT22;42141;53.240;6.580;2023-04-15T12:03:45;9.60;99.90
56234;DHT22;42141;53.240;6.580;2023-04-15T12:06:24;9.60;99.90
56234;DHT22;42141;53.240;6.580;2023-04-15T12:09:11;9.70;99.90
56234;DHT22;42141;53.240;6.580;2023-04-15T12:11:45;9.60;99.90
56234;DHT22;42141;53.240;6.580;2023-04-15T12:16:43;9.60;99.90
56234;DHT22;42141;53.240;6.580;2023-04-15T12:19:11;9.60;99.90
56234;DHT22;42141;53.240;6.580;2023-04-15T12:21:40;9.70;99.90
56234;DHT22;42141;53.240;6.580;2023-04-15T12:24:07;9.80;99.90
56234;DHT22;42141;53.240;6.580;2023-04-15T12:26:48;9.80;99.90
56234;DHT22;42141;53.240;6.580;2023-04-15T12:29:16;9.80;99.90
56234;DHT22;42141;53.240;6.580;2023-04-15T12:31:53;9.80;99.90
56234;DHT22;42141;53.240;6.580;2023-04-15T12:34:30;9.80;99.90
56234;DHT22;42141;53.240;6.580;2023-04-15T12:36:57;9.80;99.90
56234;DHT22;42141;53.240;6.580;2023-04-15T12:39:24;9.80;99.90
56234;DHT22;42141;53.240;6.580;2023-04-15T12:41:50;9.70;99.90
56234;DHT22;42141;53.240;6.580;2023-04-15T12:44:16;9.70;99.90
56234;DHT22;42141;53.240;6.580;2023-04-15T12:46:41;9.70;99.90
56234;DHT22;42141;53.240;6.580;2023-04-15T12:49:07;9.70;99.90
56234;DHT22;42141;53.240;6.580;2023-04-15T12:51:33;9.70;99.90
56234;DHT22;42141;53.240;6.580;2023-04-15T12:53:59;9.70;99.90
56234;DHT22;42141;53.240;6.580;2023-04-15T12:56:25;9.70;99.90
56234;DHT22;42141;53.240;6.580;2023-04-15T12:58:51;9.70;99.90
56234;DHT22;42141;53.240;6.580;2023-04-15T13:01:17;9.60;99.90
56234;DHT22;42141;53.240;6.580;2023-04-15T13:03:43;9.50;99.90
56234;DHT22;42141;53.240;6.580;2023-04-15T13:06:09;9.50;99.90
56234;DHT22;42141;53.240;6.580;2023-04-15T13:08:34;9.40;99.90
56234;DHT22;42141;53.240;6.580;2023-04-15T13:11:00;9.40;99.90
56234;DHT22;42141;53.240;6.580;2023-04-15T13:13:26;9.30;99.90
56234;DHT22;42141;53.240;6.580;2023-04-15T13:15:52;9.30;99.90
56234;DHT22;42141;53.240;6.580;2023-04-15T13:18:18;9.20;99.90
56234;DHT22;42141;53.240;6.580;2023-04-15T13:20:43;9.20;99.90
56234;DHT22;42141;53.240;6.580;2023-04-15T13:23:09;9.20;99.90
56234;DHT22;42141;53.240;6.580;2023-04-15T13:25:35;9.50;99.90
56234;DHT22;42141;53.240;6.580;2023-04-15T13:28:01;9.10;99.90
56234;DHT22;42141;53.240;6.580;2023-04-15T13:30:27;9.10;99.90
56234;DHT22;42141;53.240;6.580;2023-04-15T13:32:53;9.00;99.90
56234;DHT22;42141;53.240;6.580;2023-04-15T13:35:19;9.30;99.90
56234;DHT22;42141;53.240;6.580;2023-04-15T13:37:46;8.90;99.90
56234;DHT22;42141;53.240;6.580;2023-04-15T13:40:12;8.90;99.90
56234;DHT22;42141;53.240;6.580;2023-04-15T13:42:37;8.90;99.90
56234;DHT22;42141;53.240;6.580;2023-04-15T13:45:03;8.80;99.90
56234;DHT22;42141;53.240;6.580;2023-04-15T13:47:29;8.80;99.90
56234;DHT22;42141;53.240;6.580;2023-04-15T13:49:55;8.90;99.90
56234;DHT22;42141;53.240;6.580;2023-04-15T13:52:22;8.80;99.90
56234;DHT22;42141;53.240;6.580;2023-04-15T13:54:48;8.90;99.90
56234;DHT22;42141;53.240;6.580;2023-04-15T13:57:14;8.90;99.90
56234;DHT22;42141;53.240;6.580;2023-04-15T13:59:39;8.90;99.90
56234;DHT22;42141;53.240;6.580;2023-04-15T14:02:06;8.90;99.90
56234;DHT22;42141;53.240;6.580;2023-04-15T14:04:31;8.20;99.90
56234;DHT22;42141;53.240;6.580;2023-04-15T14:06:57;8.90;99.90
56234;DHT22;42141;53.240;6.580;2023-04-15T14:09:23;8.90;99.90
56234;DHT22;42141;53.240;6.580;2023-04-15T14:11:50;8.80;99.90
56234;DHT22;42141;53.240;6.580;2023-04-15T14:14:15;9.00;99.90
56234;DHT22;42141;53.240;6.580;2023-04-15T14:16:41;8.90;99.90
56234;DHT22;42141;53.240;6.580;2023-04-15T14:19:07;8.80;99.90
56234;DHT22;42141;53.240;6.580;2023-04-15T14:21:33;8.80;99.90
56234;DHT22;42141;53.240;6.580;2023-04-15T14:23:58;8.80;99.90
56234;DHT22;42141;53.240;6.580;2023-04-15T14:26:24;8.80;99.90
56234;DHT22;42141;53.240;6.580;2023-04-15T14:28:50;8.80;99.90
56234;DHT22;42141;53.240;6.580;2023-04-15T14:31:17;8.90;99.90
56234;DHT22;42141;53.240;6.580;2023-04-15T14:33:43;9.30;99.90
56234;DHT22;42141;53.240;6.580;2023-04-15T14:36:09;8.80;99.90
56234;DHT22;42141;53.240;6.580;2023-04-15T14:38:35;8.80;99.90
56234;DHT22;42141;53.240;6.580;2023-04-15T14:41:06;9.10;99.90
56234;DHT22;42141;53.240;6.580;2023-04-15T14:43:33;8.80;99.90
56234;DHT22;42141;53.240;6.580;2023-04-15T14:45:59;9.30;99.90
56234;DHT22;42141;53.240;6.580;2023-04-15T14:48:25;8.70;99.90
56234;DHT22;42141;53.240;6.580;2023-04-15T14:50:51;9.20;99.90
56234;DHT22;42141;53.240;6.580;2023-04-15T14:53:17;9.40;99.90
56234;DHT22;42141;53.240;6.580;2023-04-15T14:55:43;9.00;99.90
56234;DHT22;42141;53.240;6.580;2023-04-15T14:58:09;8.70;99.90
56234;DHT22;42141;53.240;6.580;2023-04-15T15:00:36;8.80;99.90
56234;DHT22;42141;53.240;6.580;2023-04-15T15:03:05;8.70;99.90
56234;DHT22;42141;53.240;6.580;2023-04-15T15:05:38;8.70;99.90
56234;DHT22;42141;53.240;6.580;2023-04-15T15:08:05;9.00;99.90
56234;DHT22;42141;53.240;6.580;2023-04-15T15:10:32;8.50;99.90
56234;DHT22;42141;53.240;6.580;2023-04-15T15:12:58;8.60;99.90
56234;DHT22;42141;53.240;6.580;2023-04-15T15:15:23;8.50;99.90
56234;DHT22;42141;53.240;6.580;2023-04-15T15:17:49;8.80;99.90
56234;DHT22;42141;53.240;6.580;2023-04-15T15:20:16;9.60;99.90
56234;DHT22;42141;53.240;6.580;2023-04-15T15:22:43;8.50;99.90
56234;DHT22;42141;53.240;6.580;2023-04-15T15:25:09;8.50;99.90
56234;DHT22;42141;53.240;6.580;2023-04-15T15:27:35;8.80;99.90
56234;DHT22;42141;53.240;6.580;2023-04-15T15:30:02;9.50;99.90
56234;DHT22;42141;53.240;6.580;2023-04-15T15:32:28;8.50;99.90
56234;DHT22;42141;53.240;6.580;2023-04-15T15:34:54;9.00;99.90
56234;DHT22;42141;53.240;6.580;2023-04-15T15:37:19;8.80;99.90
56234;DHT22;42141;53.240;6.580;2023-04-15T15:39:45;8.70;99.90
56234;DHT22;42141;53.240;6.580;2023-04-15T15:42:11;8.40;99.90
56234;DHT22;42141;53.240;6.580;2023-04-15T15:44:36;8.50;99.90
56234;DHT22;42141;53.240;6.580;2023-04-15T15:47:04;8.50;99.90
56234;DHT22;42141;53.240;6.580;2023-04-15T15:49:30;8.40;99.90
56234;DHT22;42141;53.240;6.580;2023-04-15T15:51:56;8.40;99.90
56234;DHT22;42141;53.240;6.580;2023-04-15T15:54:22;8.40;99.90
56234;DHT22;42141;53.240;6.580;2023-04-15T15:56:48;8.40;99.90